Port Angeles, WA (98362)

4:51 PM PDT on September 02, 2015 (GMT -0700)
Lake Dawn | | Change Station
CLOSE
Current Station
Personal Weather Station
Location: Port Angeles, WA
Elevation: 1864 ft
Nearby Weather Stations

Elev 1864 ft 48.04 °N, 123.43 °W | Updated 6 minutes ago

Overcast
Overcast
50.4 °F
Feels Like 50.4 °F
N
1.6
Wind Variable Wind from West
Gusts 2.2 mph

Today
High -- | Low -- °F
--% Chance of Precip.
Yesterday
High -- | Low -- °F
Precip. -- in
6:33 AM 7:53 PM
Waning Gibbous, 76% visible
Pressure 29.91 in
Visibility 9.0 miles
Clouds Scattered Clouds 4500 ft
Mostly Cloudy 7500 ft
Overcast 8500 ft
Dew Point 50 °F
Humidity 99%
Rainfall 0.14 in
Snow Depth Not available.
UV 1 out of 12
Pollen .50 out of 12
Air Quality Not available.
Flu Activity Not available.
SPECI KCLM 022334Z AUTO 20003KT 9SM -RA SCT045 BKN075 OVC085 13/11 A2991 RMK AO2 RAB2256 P0009 T01330111
Pressure 29.91 in
Visibility 9.0 miles
Clouds Scattered Clouds 4500 ft
Mostly Cloudy 7500 ft
Overcast 8500 ft
Dew Point 50 °F
Humidity 99%
Rainfall 0.14 in
Snow Depth Not available.
UV 1 out of 12
Pollen .50 out of 12
Air Quality Not available.
Flu Activity Not available.
SPECI KCLM 022334Z AUTO 20003KT 9SM -RA SCT045 BKN075 OVC085 13/11 A2991 RMK AO2 RAB2256 P0009 T01330111

10-Day Weather Forecast

×

Almanac

Astronomy

Sep. 02, 2015 Rise Set
Actual Time
Civil Twilight
Nautical Twilight
Astronomical Twilight
Moon
Length of Visible Light
Length of Day
Tomorrow will be .
, % of the Moon is Illuminated

Today's Extremes

State Highs State Lows

Community

WunderPhotos

Upload Photos

1,851,841 photos uploaded!

WunderBlogs® & News

Nearby

Air Quality

  Air Quality AQ Index Pollutant
Not available.

Snow Depth

Station Depth Elevation

Earthquake Activity

City Distance Mag. Time & Date
Minimum magnitude displayed is 2.5.

Coastal Water Temperatures

Place Temperature

Stations

Nearby Weather Stations

Station Location Temp. Windchill Dew Point Humidity Wind Precip. Elev Updated Type